TimeMDT,TemperatureF,Dew PointF,Humidity,Sea Level PressureIn,VisibilityMPH,Wind Direction,Wind SpeedMPH,Gust SpeedMPH,PrecipitationIn,Events,Conditions,WindDirDegrees,DateUTC
12:53 AM,71.1,54.0,55,29.97,10.0,ESE,9.2,-,N/A,,Clear,120,2013-06-30 06:53:00
1:53 AM,66.9,54.0,63,29.97,10.0,ENE,8.1,-,N/A,,Clear,70,2013-06-30 07:53:00
2:53 AM,66.0,55.0,68,29.96,10.0,East,8.1,-,N/A,,Clear,80,2013-06-30 08:53:00
3:53 AM,64.9,54.0,68,29.96,10.0,East,10.4,-,N/A,,Clear,90,2013-06-30 09:53:00
4:53 AM,64.0,52.0,65,29.97,10.0,East,10.4,-,N/A,,Clear,90,2013-06-30 10:53:00
5:53 AM,63.0,52.0,67,29.98,10.0,East,12.7,-,N/A,,Clear,90,2013-06-30 11:53:00
6:53 AM,64.9,52.0,63,30.01,10.0,East,13.8,-,N/A,,Clear,90,2013-06-30 12:53:00
7:53 AM,69.1,51.1,53,30.00,10.0,ESE,19.6,-,N/A,,Clear,120,2013-06-30 13:53:00
8:53 AM,73.0,52.0,48,30.01,10.0,ESE,16.1,-,N/A,,Clear,110,2013-06-30 14:53:00
9:53 AM,75.9,51.1,42,30.01,10.0,SE,15.0,-,N/A,,Partly Cloudy,140,2013-06-30 15:53:00
10:53 AM,77.0,48.9,37,29.99,10.0,ESE,19.6,-,N/A,,Partly Cloudy,110,2013-06-30 16:53:00
11:53 AM,78.1,48.9,36,30.01,10.0,East,13.8,-,N/A,,Clear,100,2013-06-30 17:53:00
12:53 PM,79.0,46.0,31,30.01,10.0,East,24.2,31.1,N/A,,Scattered Clouds,80,2013-06-30 18:53:00
1:53 PM,73.0,48.9,42,30.02,10.0,East,27.6,31.1,N/A,,Scattered Clouds,90,2013-06-30 19:53:00
2:53 PM,75.0,52.0,44,29.99,10.0,ESE,20.7,-,N/A,,Mostly Cloudy,120,2013-06-30 20:53:00
3:53 PM,72.0,52.0,49,30.04,10.0,North,-9999.0,-,N/A,,Clear,0,2013-06-30 21:53:00
4:53 PM,73.0,55.0,53,30.04,10.0,North,-9999.0,-,N/A,,Mostly Cloudy,0,2013-06-30 22:53:00
5:53 PM,71.1,54.0,55,30.05,10.0,North,-9999.0,-,N/A,,Partly Cloudy,0,2013-06-30 23:53:00
6:53 PM,71.1,53.1,53,30.05,10.0,North,-9999.0,-,N/A,,Clear,0,2013-07-01 00:53:00
7:53 PM,70.0,53.1,55,30.04,10.0,North,-9999.0,-,N/A,,Mostly Cloudy,0,2013-07-01 01:53:00
8:53 PM,70.0,55.0,59,30.05,10.0,North,-9999.0,-,N/A,,Overcast,0,2013-07-01 02:53:00
9:53 PM,70.0,54.0,57,30.08,10.0,North,-9999.0,-,N/A,,Overcast,0,2013-07-01 03:53:00
10:53 PM,69.1,54.0,58,30.08,10.0,North,-9999.0,-,N/A,,Overcast,0,2013-07-01 04:53:00
11:53 PM,69.1,54.0,58,30.06,10.0,North,-9999.0,-,N/A,,Mostly Cloudy,0,2013-07-01 05:53:00